Nearby METAR Reports

 

KAVP - Avoca/Wilkes B., Pennsylvania, USA
Distance from station: NE 13mi, 20km
Updated: Tue, 22-Jun-2021 3:54am PDT
Overcast
Overcast
 Wind from calm
Wind: Calm
Temperature: 64°F , 18°C
Dew Point: 57°F , 14°C
Humidity: 78%
Barometer: 29.76 inHg , 1007.8 hPa
Clouds: Overcast
Visibility: 10 miles , 16 km
Cloud details: Overcast 3200 ft
2021/06/22 10:54 KAVP 221054Z 00000KT 10SM OVC032 18/14 A2976 RMK AO2 SLP066 T01830139
KMPO - Mt. Pocono, Pennsylvania, USA
Distance from station: ESE 28mi, 45km
Updated: Tue, 22-Jun-2021 3:53am PDT
Overcast
Overcast
 Wind from NW
Wind: NW 12 mph , 19 km/h
Temperature: 61°F , 16°C
Dew Point: 57°F , 14°C
Humidity: 88%
Barometer: 29.76 inHg , 1007.8 hPa
Clouds: Overcast
Visibility: 10 miles , 16 km
Cloud details: Overcast 6500 ft
2021/06/22 10:53 KMPO 221053Z AUTO 31010KT 10SM OVC065 16/14 A2976 RMK AO2 RAB00E19 SLP065 P0000 T01560144
 
KABE - Allentown, Pennsylvania, USA
Distance from station: SSE 46mi, 74km
Updated: Tue, 22-Jun-2021 4:07am PDT
Light rain, Mostly cloudy
Light rain, Mostly cloudy
 Wind from calm
Wind: Calm
Temperature: 70°F , 21°C
Dew Point: 66°F , 19°C
Humidity: 88%
Barometer: 29.70 inHg , 1005.8 hPa
Summary: Light Rain
Clouds: Mostly Cloudy
Visibility: 10 miles , 16 km
Cloud details: Partly Cloudy 2300 ft
Partly Cloudy 4600 ft
Mostly Cloudy 8000 ft
2021/06/22 11:07 KABE 221107Z 00000KT 10SM -RA SCT023 SCT046 BKN080 21/19 A2970 RMK AO2 RAB05 P0000 T02110194
KXLL - Allentown Queen, Pennsylvania, USA
Distance from station: SSE 50mi, 81km
Updated: Tue, 22-Jun-2021 4:35am PDT
Mostly Cloudy
Mostly Cloudy
 Wind from NW
Wind: NW 3 mph , 6 km/h
Temperature: 70°F , 21°C
Dew Point: 68°F , 20°C
Humidity: 94%
Barometer: 29.73 inHg , 1006.8 hPa
Clouds: Mostly Cloudy
Visibility: 10 miles , 16 km
Cloud details: Partly Cloudy 2000 ft
Partly Cloudy 2700 ft
Mostly Cloudy 12000 ft
2021/06/22 11:35 KXLL 221135Z AUTO 31003KT 10SM SCT020 SCT027 BKN120 21/20 A2973 RMK AO2
 
KIPT - Williamsport, Pennsylvania, USA
Distance from station: W 52mi, 84km
Updated: Tue, 22-Jun-2021 3:54am PDT
Light rain, Overcast
Light rain, Overcast
 Wind from WSW
Wind: WSW 3 mph , 6 km/h
Temperature: 63°F , 17°C
Dew Point: 59°F , 15°C
Humidity: 88%
Barometer: 29.75 inHg , 1007.5 hPa
Summary: Light Rain
Clouds: Overcast
Visibility: 10 miles , 16 km
Cloud details: Partly Cloudy 4900 ft
Overcast 9500 ft
2021/06/22 10:54 KIPT 221054Z 25003KT 10SM -RA SCT049 OVC095 17/15 A2975 RMK AO2 RAB00 SLP071 P0003 T01720150
KSEG - Selinsgrove, Pennsylvania, USA
Distance from station: WSW 57mi, 92km
Updated: Tue, 22-Jun-2021 3:53am PDT
Light rain, Mist, Overcast
Light rain, Mist, Overcast
 Wind from NNW
Wind: NNW 9 mph , 15 km/h
Temperature: 64°F , 18°C
Dew Point: 61°F , 16°C
Humidity: 88%
Barometer: 29.76 inHg , 1007.8 hPa
Summary: Light rain, Mist
Clouds: Overcast
Visibility: 5 miles , 8 km
Cloud details: Few Clouds 2300 ft
Partly Cloudy 4800 ft
Overcast 7000 ft
2021/06/22 10:53 KSEG 221053Z AUTO 34008KT 5SM -RA BR FEW023 SCT048 OVC070 18/16 A2976 RMK AO2 SLP073 P0002 T01830161
 
KRDG - Reading, Pennsylvania, USA
Distance from station: S 59mi, 95km
Updated: Tue, 22-Jun-2021 3:54am PDT
Mostly Cloudy
Mostly Cloudy
 Wind from W
Wind: W 5 mph , 7 km/h
Temperature: 72°F , 22°C
Dew Point: 68°F , 20°C
Humidity: 88%
Barometer: 29.70 inHg , 1005.8 hPa
Clouds: Mostly Cloudy
Visibility: 10 miles , 16 km
Cloud details: Partly Cloudy 6000 ft
Mostly Cloudy 7500 ft
Mostly Cloudy 9000 ft
2021/06/22 10:54 KRDG 221054Z 27004KT 10SM SCT060 BKN075 BKN090 22/20 A2970 RMK AO2 RAB30E46 SLP058 P0000 T02170200
KUKT - Quakertown Arp, Pennsylvania, USA
Distance from station: SSE 61mi, 98km
Updated: Tue, 22-Jun-2021 4:35am PDT
Clear
Clear
 Wind from calm
Wind: Calm
Temperature: 70°F , 21°C
Dew Point: 70°F , 21°C
Humidity: 100%
Barometer: 29.72 inHg , 1006.4 hPa
Clouds: Clear
Visibility: 10 miles , 16 km
2021/06/22 11:35 KUKT 221135Z AUTO 00000KT 10SM CLR 21/21 A2972 RMK A01
 
K12N - Andover, New Jersey, USA
Distance from station: ESE 63mi, 101km
Updated: Tue, 22-Jun-2021 3:54am PDT

 Wind from calm
Wind: Calm
Temperature: 70°F , 21°C
Dew Point: 70°F , 21°C
Humidity: 100%
Barometer: 29.71 inHg , 1006.1 hPa
2021/06/22 10:54 K12N 221054Z AUTO 00000KT 21/21 A2971 RMK AO1 SLP050 T02110206
KMUI - Muir Aaf/Indiant, Pennsylvania, USA
Distance from station: SSW 65mi, 105km
Updated: Tue, 22-Jun-2021 4:28am PDT
Nearby showers, Overcast
Nearby showers, Overcast
 Wind from varies
Wind: varies 3 mph , 6 km/h
Temperature: 70°F , 21°C
Dew Point: 63°F , 17°C
Humidity: 78%
Barometer: 29.74 inHg , 1007.1 hPa
Summary: Nearby Showers
Clouds: Overcast
Visibility: 10 miles , 16 km
Cloud details: Partly Cloudy 2200 ft
Overcast 6000 ft
2021/06/22 11:28 KMUI 221128Z VRB03KT 10SM VCSH SCT022 OVC060 21/17 A2974 RMK AO2A RAE06DZB06E28 SLP071
 
KFWN - Sussex, New Jersey, USA
Distance from station: E 66mi, 107km
Updated: Tue, 22-Jun-2021 4:04am PDT
Overcast
Overcast
 Wind from varies
Wind: varies 3 mph , 6 km/h
Temperature: 70°F , 21°C
Dew Point: 64°F , 18°C
Humidity: 83%
Barometer: 29.71 inHg , 1006.1 hPa
Clouds: Overcast
Visibility: 10 miles , 16 km
Cloud details: Partly Cloudy 1600 ft
Mostly Cloudy 3300 ft
Overcast 7500 ft
2021/06/22 11:04 KFWN 221104Z AUTO VRB03KT 10SM SCT016 BKN033 OVC075 21/18 A2971 RMK AO2 T02110178
KMSV - Monticello, New York, USA
Distance from station: ENE 67mi, 108km
Updated: Tue, 22-Jun-2021 3:56am PDT
Overcast
Overcast
 Wind from NNW
Wind: NNW 6 mph , 9 km/h
Temperature: 61°F , 16°C
Dew Point: 61°F , 16°C
Humidity: 100%
Barometer: 29.75 inHg , 1007.5 hPa
Clouds: Overcast
Visibility: 10 miles , 16 km
Cloud details: Overcast 3500 ft
2021/06/22 10:56 KMSV 221056Z AUTO 34005KT 10SM OVC035 16/16 A2975 RMK AO2 RAB19E29 SLP064 P0000 T01610156
 
KBGM - Binghamton, New York, USA
Distance from station: N 69mi, 111km
Updated: Tue, 22-Jun-2021 4:31am PDT
Light rain, Mist, Overcast
Light rain, Mist, Overcast
 Wind from NNW
Wind: NNW 9 mph , 15 km/h
Temperature: 55°F , 13°C
Dew Point: 54°F , 12°C
Humidity: 94%
Barometer: 29.78 inHg , 1008.5 hPa
Summary: Light rain, Mist
Clouds: Overcast
Visibility: 5 miles , 8 km
Cloud details: Partly Cloudy 1400 ft
Overcast 10000 ft
2021/06/22 11:31 KBGM 221131Z 33008KT 5SM -RA BR SCT014 OVC100 13/12 A2978 RMK AO2 P0002 T01280117
KPTW - Pottstown, Pennsylvania, USA
Distance from station: SSE 71mi, 114km
Updated: Tue, 22-Jun-2021 3:54am PDT
Few Clouds
Few Clouds
 Wind from WNW
Wind: WNW 3 mph , 6 km/h
Temperature: 70°F , 21°C
Dew Point: 66°F , 19°C
Humidity: 88%
Barometer: 29.71 inHg , 1006.1 hPa
Clouds: Few Clouds
Cloud details: Few Clouds 8500 ft
2021/06/22 10:54 KPTW 221054Z AUTO 30003KT FEW085 21/19 A2971 RMK AO2 SLP056 T02060194
 
KDYL - Doylestown, Pennsylvania, USA
Distance from station: SE 74mi, 119km
Updated: Fri, 18-Jun-2021 8:54pm PDT
NOT Current
Clear
Clear
 Wind from SSW
Wind: SSW 7 mph , 11 km/h
Temperature: 73°F , 23°C
Dew Point: 57°F , 14°C
Humidity: 57%
Barometer: 29.86 inHg , 1011.2 hPa
Clouds: Clear
Visibility: 10 miles , 16 km
2021/06/19 03:54 KDYL 190354Z AUTO 20006KT 10SM CLR 23/14 A2986 RMK AO2 SLP107 T02280139
KSMQ - Somerville, New Jersey, USA
Distance from station: ESE 77mi, 124km
Updated: Tue, 22-Jun-2021 3:53am PDT
Mist, Mostly cloudy
Mist, Mostly cloudy
 Wind from calm
Wind: Calm
Temperature: 72°F , 22°C
Dew Point: 70°F , 21°C
Humidity: 94%
Barometer: 29.68 inHg , 1005.1 hPa
Summary: Mist
Clouds: Mostly Cloudy
Visibility: 6 miles , 10 km
Cloud details: Mostly Cloudy 9000 ft
2021/06/22 10:53 KSMQ 221053Z AUTO 00000KT 6SM BR BKN090 22/21 A2968 RMK AO2 SLP047 T02170206
 
KLNS - Lancaster, Pennsylvania, USA
Distance from station: SSW 79mi, 127km
Updated: Tue, 22-Jun-2021 3:53am PDT
Few Clouds
Few Clouds
 Wind from W
Wind: W 5 mph , 7 km/h
Temperature: 72°F , 22°C
Dew Point: 66°F , 19°C
Humidity: 83%
Barometer: 29.72 inHg , 1006.4 hPa
Clouds: Few Clouds
Visibility: 10 miles , 16 km
Cloud details: Few Clouds 4900 ft
Few Clouds 8000 ft
2021/06/22 10:53 KLNS 221053Z 27004KT 10SM FEW049 FEW080 22/19 A2972 RMK AO2 RAB17E29 SLP059 P0000 T02170194
KELM - Elmira, New York, USA
Distance from station: NW 82mi, 132km
Updated: Tue, 22-Jun-2021 3:53am PDT
Mostly Cloudy
Mostly Cloudy
 Wind from varies
Wind: varies 3 mph , 6 km/h
Temperature: 59°F , 15°C
Dew Point: 54°F , 12°C
Humidity: 82%
Barometer: 29.77 inHg , 1008.1 hPa
Clouds: Mostly Cloudy
Visibility: 10 miles , 16 km
Cloud details: Few Clouds 2500 ft
Mostly Cloudy 8500 ft
2021/06/22 10:53 KELM 221053Z VRB03KT 10SM FEW025 BKN085 15/12 A2977 RMK AO2 RAE35 SLP078 P0001 T01500122
 
KLOM - Philly Wings F, Pennsylvania, USA
Distance from station: SSE 82mi, 132km
Updated: Tue, 22-Jun-2021 4:35am PDT
Mostly Cloudy
Mostly Cloudy
 Wind from calm
Wind: Calm
Temperature: 72°F , 22°C
Dew Point: 68°F , 20°C
Humidity: 88%
Barometer: 29.71 inHg , 1006.1 hPa
Clouds: Mostly Cloudy
Visibility: 10 miles , 16 km
Cloud details: Mostly Cloudy 7000 ft
2021/06/22 11:35 KLOM 221135Z AUTO 00000KT 10SM BKN070 22/20 A2971 RMK AO2 T02160203
KMMU - Morristown Muni, New Jersey, USA
Distance from station: ESE 83mi, 134km
Updated: Tue, 22-Jun-2021 4:45am PDT
Mostly Cloudy
Mostly Cloudy
 Wind from calm
Wind: Calm
Temperature: 75°F , 24°C
Dew Point: 73°F , 23°C
Humidity: 94%
Barometer: 29.69 inHg , 1005.4 hPa
Clouds: Mostly Cloudy
Visibility: 8 miles , 13 km
Cloud details: Mostly Cloudy 9000 ft
2021/06/22 11:45 KMMU 221145Z 00000KT 8SM BKN090 24/23 A2969

Metar display script from Saratoga-Weather.org